Gregorytown, New York
Current Conditions -  °F | °C
As of 6:55 PM on Saturday 22 Nov 2014 (Local Time) from KMSV Reporting Station
Overcast Overcast  
Wind Chill: 29°   Ceiling: 2500
Heat Index: 36°   Visibility: 10mi
Dew Point: 16°   Wind: 8mph
Humidity: 44%   Direction: 240°WSW
Pressure: 30.16"   Gusts: NA
Location:  42.0755°N, 75.0491°W
Report Text: KMSV 222355Z AUTO 24007KT 10SM OVC025 02/M09 A3016 RMK AO1 10040 20010 400401120 57003
Loading
Personal Weather Stations






























Interactive Weather Map New forecast layout! Learn more

10-Day Weather Forecast

Advertisements
Track Severe Weather on mobile